Time;durP1;ratioP1;P1;durP2;ratioP2;P2;SDS_P1;SDS_P2;PMS_P1;PMS_P2;Temp;Humidity;BMP_temperature;BMP_pressure;BME280_temperature;BME280_humidity;BME280_pressure;Samples;Min_cycle;Max_cycle;Signal;HPM_P1;HPM_P2
2023/10/01 00:00:46;;;;;;;10.50;5.50;;;;;;;-144.30;43.14;84702.72;5053191;28;20192;-67
2023/10/01 00:03:14;;;;;;;11.80;6.43;;;;;;;-144.30;43.24;84684.81;5053024;28;20196;-68
2023/10/01 00:05:41;;;;;;;8.52;4.78;;;;;;;-144.30;43.33;84704.69;5052930;28;20741;-68
2023/10/01 00:08:12;;;;;;;6.57;5.80;;;;;;;-144.30;43.17;84690.78;5053405;28;20202;-69
2023/10/01 00:10:41;;;;;;;12.52;5.65;;;;;;;-144.30;43.29;84664.94;5053443;28;20629;-68
2023/10/01 00:13:08;;;;;;;8.55;4.93;;;;;;;-144.30;43.41;84694.75;5053216;28;20205;-67
2023/10/01 00:15:37;;;;;;;7.82;5.32;;;;;;;-144.30;43.26;84633.16;5053071;28;20845;-67
2023/10/01 00:18:05;;;;;;;6.40;4.93;;;;;;;-144.30;43.39;84555.63;5052819;28;20720;-68
2023/10/01 00:20:33;;;;;;;10.57;5.57;;;;;;;-144.30;43.33;84676.88;5053164;28;20746;-68
2023/10/01 00:23:02;;;;;;;6.93;5.25;;;;;;;-144.30;43.57;84708.66;5052855;28;20197;-68
2023/10/01 00:25:30;;;;;;;7.97;5.55;;;;;;;-144.30;43.65;84722.59;5052999;28;20712;-68
2023/10/01 00:27:58;;;;;;;11.18;5.38;;;;;;;-144.30;43.89;84710.66;5052648;28;20738;-68
2023/10/01 00:30:25;;;;;;;8.05;6.07;;;;;;;-144.30;43.96;84724.56;5052530;28;20657;-68
2023/10/01 00:32:55;;;;;;;8.95;5.63;;;;;;;-144.30;44.11;84708.66;5052821;28;20214;-68
2023/10/01 00:35:22;;;;;;;8.80;5.68;;;;;;;-144.30;44.06;84730.53;5052608;28;20260;-67
2023/10/01 00:37:50;;;;;;;6.60;5.03;;;;;;;-144.30;44.11;84724.56;5052639;28;20196;-67
2023/10/01 00:40:17;;;;;;;6.60;5.10;;;;;;;-144.30;44.07;84700.72;5052598;28;20204;-67
2023/10/01 00:42:44;;;;;;;8.70;5.32;;;;;;;-144.30;44.07;84670.91;5052616;28;20197;-67
2023/10/01 00:45:14;;;;;;;7.80;5.30;;;;;;;-144.30;44.12;84736.50;5052467;28;20207;-67
2023/10/01 00:47:42;;;;;;;7.90;5.68;;;;;;;-144.30;44.24;84738.47;5052455;28;20222;-67
2023/10/01 00:50:12;;;;;;;8.90;4.75;;;;;;;-144.30;44.23;84740.47;5052413;28;20655;-67
2023/10/01 00:52:41;;;;;;;10.05;5.05;;;;;;;-144.30;44.04;84619.22;5052533;28;20714;-68
2023/10/01 00:55:10;;;;;;;8.02;6.00;;;;;;;-144.30;44.29;84718.63;5012439;28;20194;-68
2023/10/01 00:57:38;;;;;;;6.13;5.53;;;;;;;-144.30;43.99;84738.47;5012485;28;20646;-68
2023/10/01 01:00:09;;;;;;;5.97;5.20;;;;;;;-144.30;44.18;84692.78;5012652;28;20198;-68
2023/10/01 01:02:38;;;;;;;11.07;5.57;;;;;;;-144.30;44.11;84750.41;5012623;28;20293;-68
2023/10/01 01:05:23;;;;;;;12.52;5.47;;;;;;;-144.30;43.92;84706.69;5012338;28;20198;-67
2023/10/01 01:07:51;;;;;;;13.38;5.75;;;;;;;-144.30;43.87;84702.72;5012373;28;20564;-69
2023/10/01 01:10:20;;;;;;;7.70;5.55;;;;;;;-144.30;43.75;84708.66;5012235;28;20206;-70
2023/10/01 01:12:53;;;;;;;7.10;4.72;;;;;;;-144.30;43.58;84744.44;5012652;28;20194;-69
2023/10/01 01:15:21;;;;;;;8.68;5.00;;;;;;;-144.30;43.58;84700.72;5012166;28;20230;-69
2023/10/01 01:17:50;;;;;;;6.25;5.40;;;;;;;-144.30;43.77;84704.69;5012082;28;20202;-68
2023/10/01 01:20:19;;;;;;;9.98;5.47;;;;;;;-144.30;43.58;84696.75;5012112;28;20198;-68
2023/10/01 01:22:51;;;;;;;15.88;5.32;;;;;;;-144.30;43.60;84724.56;5012176;28;20201;-67
2023/10/01 01:25:21;;;;;;;7.50;5.80;;;;;;;-144.30;43.30;84645.06;5012322;28;20666;-68
2023/10/01 01:27:48;;;;;;;9.27;5.65;;;;;;;-144.30;43.16;84684.81;5012144;28;20573;-68
2023/10/01 01:30:18;;;;;;;7.82;5.32;;;;;;;-144.30;43.30;84676.88;5012179;28;20256;-68
2023/10/01 01:32:47;;;;;;;6.28;5.50;;;;;;;-144.30;43.31;84694.75;5012209;28;20202;-68
2023/10/01 01:35:15;;;;;;;13.38;5.38;;;;;;;-144.30;43.31;84784.19;5011699;28;20672;-68
2023/10/01 01:37:47;;;;;;;6.82;5.63;;;;;;;-144.30;43.23;84655.00;5011694;28;20313;-67
2023/10/01 01:40:24;;;;;;;8.93;5.72;;;;;;;-144.30;43.26;84684.81;5011764;28;20224;-68
2023/10/01 01:42:56;;;;;;;7.07;5.45;;;;;;;-144.30;43.43;84718.63;5011764;28;20208;-67
2023/10/01 01:45:26;;;;;;;12.50;5.63;;;;;;;-144.30;43.19;84672.91;5011611;28;20198;-67
2023/10/01 01:47:53;;;;;;;6.40;5.20;;;;;;;-144.30;43.07;84688.81;5011792;28;20232;-68
2023/10/01 01:50:26;;;;;;;11.85;7.72;;;;;;;-144.30;43.47;84688.81;5011507;28;20198;-67
2023/10/01 01:52:56;;;;;;;8.75;5.47;;;;;;;-144.30;43.36;84700.72;5014448;28;20234;-67
2023/10/01 01:55:27;;;;;;;19.52;8.18;;;;;;;-144.30;43.49;84702.72;5051169;28;20196;-67
2023/10/01 01:58:06;;;;;;;6.10;5.57;;;;;;;-144.30;43.36;84684.81;5051022;28;20306;-67
2023/10/01 02:00:37;;;;;;;8.30;5.22;;;;;;;-144.30;43.33;84666.94;5050955;28;20196;-67
2023/10/01 02:03:10;;;;;;;8.65;7.00;;;;;;;-144.30;43.19;84684.81;5050794;28;20200;-67
2023/10/01 02:05:41;;;;;;;9.85;5.28;;;;;;;-144.30;43.31;84680.84;5050949;28;20673;-68
2023/10/01 02:08:09;;;;;;;9.10;7.63;;;;;;;-144.30;43.37;84696.75;5051036;28;20640;-69
2023/10/01 02:10:45;;;;;;;12.25;8.07;;;;;;;-144.30;43.37;84700.72;5050611;28;20205;-70
2023/10/01 02:13:16;;;;;;;7.82;7.07;;;;;;;-144.30;43.51;84728.56;5050575;28;20202;-68
2023/10/01 02:15:45;;;;;;;9.35;6.65;;;;;;;-144.30;43.53;84694.75;5050405;28;20227;-68
2023/10/01 02:18:16;;;;;;;16.85;10.25;;;;;;;-144.30;43.83;84692.78;5050611;28;20242;-68
2023/10/01 02:20:45;;;;;;;8.93;5.82;;;;;;;-144.30;43.65;84704.69;5050634;28;20204;-68
2023/10/01 02:23:13;;;;;;;9.80;6.60;;;;;;;-144.30;43.50;84684.81;5050670;28;20680;-69
2023/10/01 02:25:46;;;;;;;7.47;5.78;;;;;;;-144.30;43.46;84653.03;5050827;28;20197;-68
2023/10/01 02:28:15;;;;;;;9.90;5.68;;;;;;;-144.30;43.64;84543.72;5050424;28;20196;-68
2023/10/01 02:30:44;;;;;;;9.57;6.78;;;;;;;-144.30;43.66;84659.00;5050565;28;20210;-68
2023/10/01 02:33:18;;;;;;;9.90;6.28;;;;;;;-144.30;43.80;84672.91;5050300;28;20200;-67
2023/10/01 02:35:48;;;;;;;13.43;6.15;;;;;;;-144.30;43.79;84676.88;5050273;28;20225;-68
2023/10/01 02:41:08;;;;;;;8.13;5.30;;;;;;;-144.30;43.82;84551.66;5050280;28;20196;-68
2023/10/01 02:43:35;;;;;;;6.15;5.55;;;;;;;-144.30;43.96;84692.78;5050395;28;20720;-68
2023/10/01 02:46:07;;;;;;;14.93;6.18;;;;;;;-144.30;44.02;84649.03;5050163;28;20196;-69
2023/10/01 02:48:34;;;;;;;7.43;5.22;;;;;;;-144.30;44.04;84690.78;5050427;28;20235;-68
2023/10/01 02:51:14;;;;;;;5.72;5.13;;;;;;;-144.30;44.11;84692.78;5050054;28;20215;-69
2023/10/01 02:54:01;;;;;;;11.50;6.10;;;;;;;-144.30;44.47;84704.69;5050177;28;20228;-68
2023/10/01 02:56:32;;;;;;;10.80;5.72;;;;;;;-144.30;44.38;84702.72;5049925;28;20318;-67
2023/10/01 02:59:07;;;;;;;6.97;5.93;;;;;;;-144.30;44.45;84708.66;5049934;28;20295;-69
2023/10/01 03:01:34;;;;;;;11.32;5.43;;;;;;;-144.30;44.44;84696.75;5050206;28;20648;-68
2023/10/01 03:04:05;;;;;;;7.10;5.45;;;;;;;-144.30;44.40;84684.81;5050115;28;20203;-68
2023/10/01 03:06:33;;;;;;;5.65;5.15;;;;;;;-144.30;44.47;84730.53;5049642;28;20227;-68
2023/10/01 03:09:04;;;;;;;5.13;4.80;;;;;;;-144.30;44.63;84738.47;5049878;28;20207;-68
2023/10/01 03:11:41;;;;;;;9.40;5.45;;;;;;;-144.30;44.57;84720.59;5037047;28;20227;-68
2023/10/01 03:14:20;;;;;;;7.57;5.30;;;;;;;-144.30;44.67;84724.56;5029983;28;20254;-68
2023/10/01 03:16:53;;;;;;;9.20;5.35;;;;;;;-144.30;44.78;84720.59;5029848;28;20233;-68
2023/10/01 03:19:26;;;;;;;6.32;5.38;;;;;;;-144.30;45.01;84728.56;5029897;28;20241;-68
2023/10/01 03:22:13;;;;;;;11.63;5.10;;;;;;;-144.30;44.89;84712.66;5035723;28;20550;-67
2023/10/01 03:24:45;;;;;;;6.50;5.68;;;;;;;-144.30;44.99;84692.78;5040290;28;20344;-67
2023/10/01 03:27:20;;;;;;;5.28;4.85;;;;;;;-144.30;44.80;84738.47;5036638;28;20197;-67
2023/10/01 03:29:48;;;;;;;13.07;5.68;;;;;;;-144.30;44.52;84706.69;5033981;28;20232;-67
2023/10/01 03:32:28;;;;;;;5.68;5.03;;;;;;;-144.30;44.56;84712.66;5034085;28;20661;-68
2023/10/01 03:34:55;;;;;;;9.00;5.45;;;;;;;-144.30;44.63;84704.69;5034196;28;20199;-68
2023/10/01 03:37:27;;;;;;;8.43;5.57;;;;;;;-144.30;44.56;84696.75;5033806;28;20279;-67
2023/10/01 03:40:05;;;;;;;11.30;5.40;;;;;;;-144.30;44.39;84682.84;5043664;28;20199;-68
2023/10/01 03:42:37;;;;;;;6.18;5.57;;;;;;;-144.30;44.46;84682.84;5051406;28;20287;-68
2023/10/01 03:45:37;;;;;;;8.82;5.18;;;;;;;-144.30;44.42;84704.69;5044690;28;20189;-68
2023/10/01 03:48:06;;;;;;;10.18;5.78;;;;;;;-144.30;44.43;84684.81;5045814;28;20196;-67
2023/10/01 03:50:45;;;;;;;12.70;5.70;;;;;;;-144.30;44.57;84724.56;5033459;28;20286;-67
2023/10/01 03:53:13;;;;;;;5.97;5.45;;;;;;;-144.30;44.67;84710.66;5033531;28;20237;-68
2023/10/01 03:55:42;;;;;;;9.30;5.82;;;;;;;-144.30;44.62;84734.50;5033650;28;20259;-67
2023/10/01 03:58:18;;;;;;;6.45;5.70;;;;;;;-144.30;44.69;84688.81;5033508;28;20693;-67
2023/10/01 04:00:53;;;;;;;5.30;4.80;;;;;;;-144.30;44.68;84490.06;5044335;28;20199;-68
2023/10/01 04:03:21;;;;;;;7.00;5.60;;;;;;;-144.30;44.58;84704.69;5053397;28;20196;-67
2023/10/01 04:05:48;;;;;;;10.93;5.75;;;;;;;-144.30;44.50;84692.78;5053596;28;20227;-67
2023/10/01 04:08:15;;;;;;;9.57;5.50;;;;;;;-144.30;44.64;84718.63;5053318;28;20205;-67
2023/10/01 04:10:43;;;;;;;9.50;6.05;;;;;;;-144.30;44.51;84694.75;5047418;28;20639;-68
2023/10/01 04:13:20;;;;;;;18.85;5.63;;;;;;;-144.30;44.45;84708.66;5046088;28;20684;-68
2023/10/01 04:15:54;;;;;;;7.53;6.10;;;;;;;-144.30;44.36;84744.44;5033330;28;20197;-68
2023/10/01 04:18:23;;;;;;;5.65;4.88;;;;;;;-144.30;44.33;84657.00;5033244;28;20679;-68
2023/10/01 04:23:35;;;;;;;7.20;6.40;;;;;;;-144.30;44.66;84680.84;5032608;28;20201;-68
2023/10/01 04:26:06;;;;;;;6.47;5.22;;;;;;;-144.30;44.62;84700.72;5032712;28;20697;-69
2023/10/01 04:28:36;;;;;;;6.90;6.20;;;;;;;-144.30;44.47;84621.22;5033001;28;20330;-68
2023/10/01 04:31:08;;;;;;;6.63;5.50;;;;;;;-144.30;44.62;85088.31;5032647;28;20196;-69
2023/10/01 04:33:35;;;;;;;5.57;5.07;;;;;;;-144.30;44.40;84704.69;5033464;28;20205;-69
2023/10/01 04:36:04;;;;;;;6.85;5.93;;;;;;;-144.30;44.43;84668.94;5038238;28;20279;-69
2023/10/01 04:38:32;;;;;;;7.55;6.95;;;;;;;-144.30;44.81;84651.03;5032452;28;20197;-69
2023/10/01 04:41:03;;;;;;;7.78;6.25;;;;;;;-144.30;44.35;84639.13;5052836;28;20287;-69
2023/10/01 04:43:34;;;;;;;11.80;8.65;;;;;;;-144.30;44.36;84678.84;5040605;28;20342;-68
2023/10/01 04:46:08;;;;;;;16.75;10.70;;;;;;;-144.30;44.53;84631.16;5043748;28;20220;-68
2023/10/01 04:48:36;;;;;;;11.00;10.00;;;;;;;-144.30;44.27;84664.94;5041070;28;20211;-69
2023/10/01 04:51:07;;;;;;;9.55;8.65;;;;;;;-144.30;44.06;84627.19;5043325;28;20205;-68
2023/10/01 04:53:35;;;;;;;22.88;15.93;;;;;;;-144.30;43.94;84611.28;5043504;28;20723;-69
2023/10/01 04:56:05;;;;;;;6.53;5.95;;;;;;;-144.30;43.56;84621.22;5042693;28;20231;-68
2023/10/01 04:58:36;;;;;;;10.52;7.18;;;;;;;-144.30;43.51;84637.13;5040409;28;20196;-68
2023/10/01 05:01:06;;;;;;;14.70;6.93;;;;;;;-144.30;43.49;84587.44;5038357;28;20618;-68
2023/10/01 05:03:39;;;;;;;14.55;7.93;;;;;;;-144.30;43.06;84589.41;5031885;28;20593;-69
2023/10/01 05:06:11;;;;;;;10.70;6.32;;;;;;;-144.30;42.92;84559.63;5032072;28;20205;-68
2023/10/01 05:08:42;;;;;;;9.57;5.47;;;;;;;-144.30;42.54;84573.53;5032123;28;20201;-69
2023/10/01 05:11:11;;;;;;;10.25;6.82;;;;;;;-144.30;42.33;84537.75;5031901;28;20208;-68
2023/10/01 05:13:40;;;;;;;10.35;8.20;;;;;;;-144.30;42.15;84448.31;5031367;28;20201;-68
2023/10/01 05:16:12;;;;;;;12.25;9.07;;;;;;;-144.30;40.96;84344.97;5031851;28;20193;-68
2023/10/01 05:18:39;;;;;;;9.00;6.18;;;;;;;-144.30;38.97;84223.75;5046755;28;20658;-63
2023/10/01 05:21:12;;;;;;;13.00;8.32;;;;;;;-144.30;37.34;83983.28;5051244;28;20586;-64
2023/10/01 05:23:40;;;;;;;6.88;5.95;;;;;;;-144.30;35.19;83808.44;5051495;28;20690;-64
2023/10/01 05:26:08;;;;;;;8.75;5.03;;;;;;;-144.30;33.80;83619.66;5051529;28;20207;-66
2023/10/01 05:28:36;;;;;;;6.75;5.13;;;;;;;-144.30;32.79;83552.13;5051609;28;20207;-62
2023/10/01 05:31:12;;;;;;;17.02;6.50;;;;;;;-144.30;32.18;83387.22;5045885;28;20272;-60
2023/10/01 05:33:46;;;;;;;10.20;6.53;;;;;;;-144.30;31.20;83293.84;5041752;28;20216;-61
2023/10/01 05:36:13;;;;;;;7.22;5.93;;;;;;;-144.30;30.69;83214.38;5043004;28;20243;-61
2023/10/01 05:38:44;;;;;;;10.93;6.38;;;;;;;-144.30;29.89;83045.50;5031714;28;20564;-60
2023/10/01 05:41:13;;;;;;;6.38;5.53;;;;;;;-144.30;29.17;82932.28;5041590;28;20196;-61
2023/10/01 05:43:43;;;;;;;11.00;6.65;;;;;;;-144.30;28.85;82799.19;5040355;28;20673;-60
2023/10/01 05:46:10;;;;;;;8.88;5.85;;;;;;;-144.30;28.81;82801.16;5036164;28;20228;-64
2023/10/01 05:48:39;;;;;;;7.88;5.40;;;;;;;-144.30;28.21;82743.56;5030999;28;20193;-61
2023/10/01 05:51:11;;;;;;;6.95;5.35;;;;;;;-144.30;27.42;82574.72;5035240;28;20201;-64
2023/10/01 05:53:38;;;;;;;6.97;5.60;;;;;;;-144.30;27.11;82485.34;5050562;28;20274;-60
2023/10/01 05:56:07;;;;;;;9.77;5.05;;;;;;;-144.30;27.55;82733.63;5049570;28;20459;-60
2023/10/01 05:58:34;;;;;;;6.32;4.63;;;;;;;-144.30;28.92;83087.22;5051395;28;20657;-61
2023/10/01 06:01:13;;;;;;;6.07;5.47;;;;;;;-144.30;29.70;83111.06;5051101;28;20201;-60
2023/10/01 06:03:41;;;;;;;8.60;6.45;;;;;;;-144.30;30.58;83315.69;5050892;28;20196;-61
2023/10/01 06:06:13;;;;;;;9.23;5.63;;;;;;;-144.30;31.48;83456.75;5050718;28;20205;-60
2023/10/01 06:08:49;;;;;;;8.93;6.75;;;;;;;-144.30;32.55;83659.41;5051054;28;20189;-62
2023/10/01 06:11:17;;;;;;;7.50;6.90;;;;;;;-144.30;33.31;83758.75;5051119;28;20200;-61
2023/10/01 06:13:51;;;;;;;9.77;6.15;;;;;;;-144.30;34.11;83617.69;5050759;28;20192;-63
2023/10/01 06:16:23;;;;;;;17.52;11.57;;;;;;;-144.30;34.81;83856.13;5050751;28;20283;-62
2023/10/01 06:18:52;;;;;;;9.43;6.72;;;;;;;-144.30;35.32;83965.41;5051020;28;20220;-62
2023/10/01 06:21:23;;;;;;;10.55;9.00;;;;;;;-144.30;35.63;83820.34;5050702;28;20200;-61
2023/10/01 06:23:50;;;;;;;14.55;9.82;;;;;;;-144.30;36.08;83991.25;5050617;28;20197;-60
2023/10/01 06:26:19;;;;;;;10.18;9.13;;;;;;;-144.30;36.36;84084.66;5050831;28;20598;-60
2023/10/01 06:28:46;;;;;;;36.72;26.30;;;;;;;-144.30;36.94;83611.72;5050789;28;20216;-61
2023/10/01 06:31:16;;;;;;;20.05;14.35;;;;;;;-144.30;37.06;84104.50;5050644;28;20203;-60
2023/10/01 06:33:44;;;;;;;8.88;7.55;;;;;;;-144.30;37.55;84164.13;5050499;28;20207;-61
2023/10/01 06:36:19;;;;;;;18.80;15.52;;;;;;;-144.30;37.98;84193.94;5050515;28;20622;-61
2023/10/01 06:38:49;;;;;;;22.70;18.77;;;;;;;-144.30;38.22;84195.94;5050746;28;20267;-60
2023/10/01 06:41:19;;;;;;;14.35;7.82;;;;;;;-144.30;38.41;84229.72;5050571;28;20700;-61
2023/10/01 06:43:54;;;;;;;37.53;22.35;;;;;;;-144.30;38.44;84209.84;5050473;28;20231;-61
2023/10/01 06:46:23;;;;;;;20.38;15.23;;;;;;;-144.30;38.56;84078.69;5050593;28;20719;-61
2023/10/01 06:48:51;;;;;;;22.05;11.23;;;;;;;-144.30;38.88;84142.28;5050590;28;20651;-61
2023/10/01 06:51:21;;;;;;;11.30;7.47;;;;;;;-144.30;38.92;84138.28;5050127;28;20300;-65
2023/10/01 06:53:54;;;;;;;12.70;7.07;;;;;;;-144.30;39.01;84154.19;5049952;28;20239;-66
2023/10/01 06:56:21;;;;;;;9.05;7.43;;;;;;;-144.30;38.93;84064.78;5046437;28;20662;-69
2023/10/01 07:01:42;;;;;;;36.53;20.83;;;;;;;-144.30;39.32;84223.75;5027368;28;20197;-65
2023/10/01 07:04:09;;;;;;;16.27;14.10;;;;;;;-144.30;39.02;84186.00;5029829;28;20193;-66
2023/10/01 07:06:37;;;;;;;10.95;7.90;;;;;;;-144.30;39.12;84112.47;5029939;28;20476;-67
2023/10/01 07:09:07;;;;;;;10.95;8.82;;;;;;;-144.30;38.87;84199.91;5030346;28;20259;-65
2023/10/01 07:11:34;;;;;;;11.27;6.25;;;;;;;-144.30;38.67;84227.72;5030210;28;20204;-66
2023/10/01 07:14:03;;;;;;;14.27;7.90;;;;;;;-144.30;39.10;84180.03;5030038;28;20193;-65
2023/10/01 07:16:39;;;;;;;11.48;9.23;;;;;;;-144.30;38.88;84187.97;5029884;28;20205;-65
2023/10/01 07:19:11;;;;;;;8.65;6.70;;;;;;;-144.30;38.94;84156.19;5029878;28;20410;-65
2023/10/01 07:21:39;;;;;;;15.35;8.95;;;;;;;-144.30;39.05;84225.75;5030412;28;20193;-66
2023/10/01 07:24:10;;;;;;;10.73;8.25;;;;;;;-144.30;38.93;84217.78;5030062;28;20237;-65
2023/10/01 07:26:40;;;;;;;9.60;7.18;;;;;;;-144.30;38.97;84217.78;5030118;28;20239;-66
2023/10/01 07:29:07;;;;;;;19.67;12.63;;;;;;;-144.30;39.12;84239.66;5030025;28;20275;-65
2023/10/01 07:31:35;;;;;;;10.93;8.45;;;;;;;-144.30;39.31;84269.47;5029752;28;20584;-67
2023/10/01 07:34:12;;;;;;;13.10;9.32;;;;;;;-144.30;39.56;85396.44;5030122;28;20197;-64
2023/10/01 07:36:42;;;;;;;16.02;8.43;;;;;;;-144.30;39.65;84291.31;5030424;28;20288;-66
2023/10/01 07:39:13;;;;;;;28.65;20.00;;;;;;;-144.30;39.92;84287.34;5029801;28;20224;-65
2023/10/01 07:41:44;;;;;;;14.73;7.82;;;;;;;-144.30;40.31;84335.03;5030029;28;20279;-65
2023/10/01 07:44:12;;;;;;;17.77;12.85;;;;;;;-144.30;40.30;84293.31;5029656;28;20216;-66
2023/10/01 07:46:39;;;;;;;11.65;8.98;;;;;;;-144.30;40.42;84354.91;5029912;28;20213;-65
2023/10/01 07:49:08;;;;;;;8.18;6.53;;;;;;;-144.30;40.53;84362.84;5029893;28;20577;-65
2023/10/01 07:51:38;;;;;;;10.77;7.38;;;;;;;-144.30;40.31;84305.22;5029850;28;20592;-65
2023/10/01 07:54:10;;;;;;;15.98;11.85;;;;;;;-144.30;40.50;84331.06;5029401;28;20324;-64
2023/10/01 07:56:48;;;;;;;23.85;13.95;;;;;;;-144.30;40.19;84319.13;5029818;28;20689;-65
2023/10/01 07:59:28;;;;;;;7.05;6.30;;;;;;;-144.30;39.64;84251.56;5029515;28;20239;-65
2023/10/01 08:02:09;;;;;;;16.40;7.25;;;;;;;-144.30;39.76;84283.38;5029619;28;20293;-65
2023/10/01 08:07:22;;;;;;;24.40;13.02;;;;;;;-144.30;39.31;84237.66;5029444;28;20207;-66
2023/10/01 08:09:51;;;;;;;15.90;9.57;;;;;;;-144.30;39.22;84243.63;5029480;28;20287;-65
2023/10/01 08:12:28;;;;;;;9.77;8.40;;;;;;;-144.30;39.26;84187.97;5030147;28;20669;-65
2023/10/01 08:17:36;;;;;;;10.45;6.90;;;;;;;-144.30;38.32;84112.47;5032849;28;20311;-59
2023/10/01 08:20:17;;;;;;;11.13;8.15;;;;;;;-144.30;38.28;84124.38;5033078;28;20197;-59
2023/10/01 08:25:28;;;;;;;13.82;8.57;;;;;;;-144.30;38.39;84128.34;5032507;28;20196;-59
2023/10/01 08:28:26;;;;;;;7.95;6.47;;;;;;;-144.30;38.03;84096.56;5032840;28;20588;-59
2023/10/01 08:31:02;;;;;;;16.38;12.05;;;;;;;-144.30;38.20;84112.47;5032806;28;20204;-60
2023/10/01 08:33:42;;;;;;;17.92;10.10;;;;;;;-144.30;38.42;84116.44;5032720;28;20649;-59
2023/10/01 08:36:13;;;;;;;12.43;9.38;;;;;;;-144.30;38.46;84227.72;5032526;28;20205;-60
2023/10/01 08:38:47;;;;;;;8.23;7.43;;;;;;;-144.30;38.71;84146.25;5032893;28;20221;-60
2023/10/01 08:41:32;;;;;;;9.77;6.82;;;;;;;-144.30;38.64;84082.66;5032821;28;20208;-59
2023/10/01 08:44:09;;;;;;;11.05;7.20;;;;;;;-144.30;38.56;84088.63;5032512;28;20197;-60
2023/10/01 08:46:39;;;;;;;19.42;14.90;;;;;;;-144.30;38.61;84110.47;5032425;28;20212;-59
2023/10/01 08:49:22;;;;;;;9.65;7.63;;;;;;;-144.30;38.78;84114.44;5032579;28;20193;-59
2023/10/01 08:51:52;;;;;;;9.32;7.93;;;;;;;-144.30;39.01;84084.66;5032535;28;20296;-60
2023/10/01 08:54:24;;;;;;;10.00;8.82;;;;;;;-144.30;38.49;84007.16;5032086;28;20236;-59
2023/10/01 08:56:53;;;;;;;27.33;15.05;;;;;;;-144.30;37.66;83909.78;5032187;28;20750;-59
2023/10/01 08:59:25;;;;;;;10.82;7.93;;;;;;;-144.30;37.24;83826.31;5032201;28;20221;-59
2023/10/01 09:01:55;;;;;;;17.83;10.38;;;;;;;-144.30;36.67;83836.25;5032495;28;20247;-59
2023/10/01 09:04:44;;;;;;;8.50;6.97;;;;;;;-144.30;36.92;83816.38;5032054;28;20205;-60
2023/10/01 09:07:18;;;;;;;10.15;7.50;;;;;;;-144.30;36.67;83814.41;5031882;28;20276;-58
2023/10/01 09:09:52;;;;;;;14.30;9.05;;;;;;;-144.30;36.58;83816.38;5032384;28;20229;-59
2023/10/01 09:12:19;;;;;;;8.13;7.32;;;;;;;-144.30;36.37;83822.34;5032318;28;20193;-59
2023/10/01 09:14:48;;;;;;;12.73;10.50;;;;;;;-144.30;36.42;83796.50;5032024;28;20198;-59
2023/10/01 09:17:24;;;;;;;16.20;11.63;;;;;;;-144.30;36.26;83810.41;5031969;28;20207;-59
2023/10/01 09:19:52;;;;;;;9.30;7.85;;;;;;;-144.30;36.08;83782.59;5031760;28;20201;-59
2023/10/01 09:22:35;;;;;;;9.75;7.15;;;;;;;-144.30;36.04;83711.06;5031739;28;20259;-59
2023/10/01 09:25:16;;;;;;;10.55;7.60;;;;;;;-144.30;35.13;83669.34;5031737;28;20214;-64
2023/10/01 09:27:59;;;;;;;8.38;7.10;;;;;;;-144.30;35.16;83683.25;5031745;28;20197;-64
2023/10/01 09:30:31;;;;;;;7.55;6.95;;;;;;;-144.30;34.62;83625.63;5031517;28;20204;-65
2023/10/01 09:33:04;;;;;;;11.00;6.90;;;;;;;-144.30;34.99;83850.16;5031705;28;20212;-64
2023/10/01 09:35:42;;;;;;;17.55;8.90;;;;;;;-144.30;35.22;83719.03;5031318;28;20193;-65
2023/10/01 09:38:11;;;;;;;10.73;6.55;;;;;;;-144.30;34.86;83679.28;5031324;28;20720;-67
2023/10/01 09:40:41;;;;;;;9.80;7.30;;;;;;;-144.30;34.92;83687.22;5031359;28;20201;-65
2023/10/01 09:43:18;;;;;;;7.90;7.20;;;;;;;-144.30;35.67;83695.19;5031674;28;20204;-65
2023/10/01 09:45:47;;;;;;;8.13;7.45;;;;;;;-144.30;34.80;83677.28;5031486;28;20197;-64
2023/10/01 09:48:30;;;;;;;9.75;7.00;;;;;;;-144.30;34.84;83663.38;5041622;28;20451;-65
2023/10/01 09:51:09;;;;;;;7.22;6.57;;;;;;;-144.30;34.77;83681.28;5049566;28;20204;-65
2023/10/01 09:54:00;;;;;;;8.65;6.72;;;;;;;-144.30;34.57;83619.66;5048318;28;20259;-64
2023/10/01 09:56:29;;;;;;;12.25;7.90;;;;;;;-144.30;34.48;83647.50;5033968;28;20200;-64
2023/10/01 09:59:01;;;;;;;13.38;7.63;;;;;;;-144.30;34.43;83607.75;5062208;28;20223;-64
2023/10/01 10:01:31;;;;;;;11.15;8.55;;;;;;;-144.30;33.91;83655.44;5050739;28;20211;-65
2023/10/01 10:04:01;;;;;;;9.60;6.38;;;;;;;-144.30;34.21;83631.59;5050116;28;20207;-65
2023/10/01 10:06:29;;;;;;;11.32;6.80;;;;;;;-144.30;34.30;83615.69;5049765;28;20200;-64
2023/10/01 10:09:06;;;;;;;12.30;6.95;;;;;;;-144.30;34.45;83623.66;5042123;28;20661;-64
2023/10/01 10:11:37;;;;;;;7.03;6.43;;;;;;;-144.30;34.33;83572.00;5041261;28;20216;-64
2023/10/01 10:14:39;;;;;;;8.18;6.25;;;;;;;-144.30;33.92;83558.06;5040126;28;20209;-63
2023/10/01 10:17:18;;;;;;;12.88;6.22;;;;;;;-144.30;33.77;83587.88;5042795;28;20196;-64
2023/10/01 10:20:00;;;;;;;17.38;6.95;;;;;;;-144.30;33.55;83534.22;5041036;28;20230;-64
2023/10/01 10:22:32;;;;;;;8.30;5.82;;;;;;;-144.30;33.62;83599.81;5041145;28;20203;-64
2023/10/01 10:25:22;;;;;;;6.82;5.55;;;;;;;-144.30;33.62;83597.81;5049022;28;20204;-65
2023/10/01 10:27:52;;;;;;;7.75;5.68;;;;;;;-144.30;33.75;83440.84;5050457;28;20211;-64
2023/10/01 10:30:21;;;;;;;8.55;6.38;;;;;;;-144.30;33.46;83579.94;5050852;28;20276;-65
2023/10/01 10:33:38;;;;;;;7.57;6.45;;;;;;;-144.30;33.60;83512.38;5050519;28;20669;-65
2023/10/01 10:36:58;;;;;;;8.20;6.15;;;;;;;-144.30;33.39;83534.22;5049777;28;20197;-65
2023/10/01 10:40:12;;;;;;;9.52;5.90;;;;;;;-144.30;33.33;83516.34;5050181;28;20228;-64
2023/10/01 10:42:41;;;;;;;7.88;5.95;;;;;;;-144.30;33.15;83534.22;5049907;28;20204;-66
2023/10/01 10:45:22;;;;;;;7.95;6.40;;;;;;;-144.30;33.07;83526.28;5050138;28;20200;-67
2023/10/01 10:48:02;;;;;;;12.05;5.75;;;;;;;-144.30;32.76;83530.25;5050283;28;20291;-66
2023/10/01 10:50:48;;;;;;;6.93;6.22;;;;;;;-144.30;32.59;83508.41;5050250;28;20196;-66
2023/10/01 10:53:16;;;;;;;14.82;6.40;;;;;;;-144.30;32.22;83500.47;5049866;28;20275;-66
2023/10/01 10:56:00;;;;;;;6.18;5.63;;;;;;;-144.30;31.93;83508.41;5049871;28;20203;-66
2023/10/01 10:58:31;;;;;;;5.80;5.47;;;;;;;-144.30;32.43;83506.41;5049883;28;20224;-66
2023/10/01 11:01:15;;;;;;;7.80;6.68;;;;;;;-144.30;32.36;83552.13;5050132;28;20226;-67
2023/10/01 11:03:43;;;;;;;6.93;6.00;;;;;;;-144.30;32.30;83581.91;5049987;28;20196;-67
2023/10/01 11:06:19;;;;;;;7.07;6.15;;;;;;;-144.30;32.30;83587.88;5050329;28;20660;-68
2023/10/01 11:08:51;;;;;;;6.22;5.78;;;;;;;-144.30;32.46;83570.00;5044906;28;20189;-67
2023/10/01 11:11:22;;;;;;;8.02;6.05;;;;;;;-144.30;32.23;83572.00;5030242;28;20224;-63
2023/10/01 11:13:59;;;;;;;6.35;5.85;;;;;;;-144.30;32.37;83520.31;5030164;28;20596;-62
2023/10/01 11:16:37;;;;;;;7.35;6.65;;;;;;;-144.30;32.47;83552.13;5029978;28;20584;-63
2023/10/01 11:19:13;;;;;;;10.15;6.63;;;;;;;-144.30;32.46;83611.72;5030019;28;20233;-63
2023/10/01 11:21:54;;;;;;;7.30;5.93;;;;;;;-144.30;32.65;83579.94;5030001;28;20201;-63
2023/10/01 11:24:24;;;;;;;8.68;5.57;;;;;;;-144.30;32.41;83599.81;5029948;28;20197;-64
2023/10/01 11:27:18;;;;;;;9.52;5.88;;;;;;;-144.30;32.58;83629.59;5029902;28;20197;-63
2023/10/01 11:29:58;;;;;;;8.20;6.43;;;;;;;-144.30;32.53;83476.63;5029897;28;20236;-62
2023/10/01 11:35:35;;;;;;;16.17;8.57;;;;;;;-144.30;31.95;83564.03;5029756;28;20312;-64
2023/10/01 11:38:07;;;;;;;7.50;6.80;;;;;;;-144.30;32.24;83564.03;5029722;28;20224;-63
2023/10/01 11:43:23;;;;;;;6.80;6.10;;;;;;;-144.30;31.86;83554.09;5029510;28;20605;-63
2023/10/01 11:46:18;;;;;;;7.03;6.40;;;;;;;-144.30;32.00;83315.69;5029769;28;20196;-64
2023/10/01 11:48:57;;;;;;;9.05;5.70;;;;;;;-144.30;31.72;83520.31;5032953;28;20624;-64
2023/10/01 11:51:48;;;;;;;5.82;5.53;;;;;;;-144.30;31.78;83532.25;5033880;28;20681;-63
2023/10/01 11:54:16;;;;;;;10.38;6.68;;;;;;;-144.30;31.74;83504.44;5033492;28;20236;-64
2023/10/01 11:56:45;;;;;;;9.40;7.00;;;;;;;-144.30;32.23;83472.66;5033415;28;20201;-64
2023/10/01 11:59:23;;;;;;;7.55;6.85;;;;;;;-144.30;31.93;83466.69;5033431;28;20308;-67
2023/10/01 12:01:54;;;;;;;6.55;5.93;;;;;;;-144.30;31.83;83415.03;5033430;28;20212;-67